Time;durP1;ratioP1;P1;durP2;ratioP2;P2;SDS_P1;SDS_P2;PMS_P1;PMS_P2;Temp;Humidity;BMP_temperature;BMP_pressure;BME280_temperature;BME280_humidity;BME280_pressure;Samples;Min_cycle;Max_cycle;Signal;HPM_P1;HPM_P2
2022/08/20 00:00:13;;;;;;;;;;;;;;;27.81;100.00;98803.19;5118197;27;20406;-91
2022/08/20 00:02:46;;;;;;;;;;;;;;;27.64;100.00;98798.88;5089922;27;19911;-91
2022/08/20 00:05:11;;;;;;;;;;;;;;;27.61;100.00;98804.50;5084816;27;20003;-92
2022/08/20 00:07:37;;;;;;;;;;;;;;;27.17;100.00;98809.97;5094564;27;19957;-92
2022/08/20 00:10:04;;;;;;;;;;;;;;;27.02;100.00;98813.22;5123653;27;19916;-93
2022/08/20 00:12:30;;;;;;;;;;;;;;;27.49;100.00;98806.63;5091902;28;19916;-92
2022/08/20 00:14:55;;;;;;;;;;;;;;;27.24;100.00;98811.03;5090243;27;20285;-91
2022/08/20 00:17:20;;;;;;;;;;;;;;;27.74;100.00;98799.56;5113754;27;20332;-91
2022/08/20 00:19:45;;;;;;;;;;;;;;;28.19;100.00;98803.56;5090525;27;20291;-92
2022/08/20 00:22:12;;;;;;;;;;;;;;;28.02;100.00;98802.72;5118046;27;19912;-92
2022/08/20 00:24:37;;;;;;;;;;;;;;;27.72;100.00;98812.13;5092777;28;19911;-91
2022/08/20 00:27:02;;;;;;;;;;;;;;;27.08;100.00;98817.88;5096712;27;19976;-93
2022/08/20 00:29:28;;;;;;;;;;;;;;;26.89;100.00;98823.38;5121144;27;19911;-91
2022/08/20 00:31:53;;;;;;;;;;;;;;;27.03;100.00;98820.16;5119617;27;19922;-92
2022/08/20 00:34:19;;;;;;;;;;;;;;;26.93;100.00;98824.72;5106376;27;19916;-93
2022/08/20 00:36:44;;;;;;;;;;;;;;;27.20;100.00;98823.72;5094533;28;19916;-92
2022/08/20 00:39:15;;;;;;;;;;;;;;;27.23;100.00;98823.44;5070556;28;19951;-91
2022/08/20 00:41:41;;;;;;;;;;;;;;;27.05;100.00;98831.41;5059443;28;19920;-93
2022/08/20 00:44:11;;;;;;;;;;;;;;;27.23;100.00;98827.88;5094980;28;20577;-91
2022/08/20 00:46:36;;;;;;;;;;;;;;;27.17;100.00;98831.97;5066823;28;19923;-91
2022/08/20 00:49:07;;;;;;;;;;;;;;;27.62;100.00;98822.88;5074833;28;19920;-91
2022/08/20 00:51:36;;;;;;;;;;;;;;;27.49;100.00;98828.63;5061144;28;19923;-91
2022/08/20 00:54:05;;;;;;;;;;;;;;;27.02;100.00;98831.72;5094018;28;19919;-92
2022/08/20 00:56:32;;;;;;;;;;;;;;;27.23;100.00;98825.22;5064637;28;19912;-92
2022/08/20 00:58:58;;;;;;;;;;;;;;;26.83;100.00;98821.41;5067869;28;19970;-91
2022/08/20 01:01:23;;;;;;;;;;;;;;;27.30;100.00;98815.66;5068001;28;20361;-93
2022/08/20 01:03:48;;;;;;;;;;;;;;;27.75;100.00;98814.44;5055899;28;19916;-91
2022/08/20 01:06:14;;;;;;;;;;;;;;;27.84;100.00;98816.13;5074686;28;20387;-92
2022/08/20 01:08:41;;;;;;;;;;;;;;;28.19;100.00;98819.47;5056802;28;19935;-91
2022/08/20 01:11:17;;;;;;;;;;;;;;;28.21;100.00;98816.63;5063337;28;20044;-91
2022/08/20 01:13:45;;;;;;;;;;;;;;;28.23;100.00;98812.00;5062435;28;20542;-92
2022/08/20 01:16:14;;;;;;;;;;;;;;;28.41;100.00;98811.81;5057489;28;20395;-92
2022/08/20 01:18:39;;;;;;;;;;;;;;;28.44;100.00;98812.31;5058966;28;19916;-92
2022/08/20 01:21:04;;;;;;;;;;;;;;;28.06;100.00;98809.34;5090170;28;19923;-91
2022/08/20 01:23:43;;;;;;;;;;;;;;;28.01;100.00;98813.47;5057495;28;19916;-92
2022/08/20 01:26:11;;;;;;;;;;;;;;;28.04;100.00;98814.00;5058757;28;19912;-92
2022/08/20 01:28:44;;;;;;;;;;;;;;;27.97;100.00;98810.34;5084192;28;19912;-91
2022/08/20 01:31:12;;;;;;;;;;;;;;;28.76;100.00;98810.59;5083360;28;19963;-92
2022/08/20 01:33:40;;;;;;;;;;;;;;;28.80;100.00;98808.44;5083199;28;19920;-92
2022/08/20 01:36:05;;;;;;;;;;;;;;;28.82;100.00;98814.41;5065575;28;19916;-92
2022/08/20 01:38:31;;;;;;;;;;;;;;;28.73;100.00;98806.47;5081254;28;20399;-91
2022/08/20 01:40:56;;;;;;;;;;;;;;;28.48;100.00;98818.13;5062265;28;20190;-92
2022/08/20 01:43:22;;;;;;;;;;;;;;;28.80;100.00;98811.09;5078001;28;19946;-92
2022/08/20 01:45:48;;;;;;;;;;;;;;;28.87;100.00;98812.88;5055212;28;20060;-92
2022/08/20 01:48:14;;;;;;;;;;;;;;;28.98;100.00;98816.97;5057421;28;19923;-92
2022/08/20 01:50:39;;;;;;;;;;;;;;;28.65;100.00;98822.41;5056134;28;20125;-92
2022/08/20 01:53:08;;;;;;;;;;;;;;;28.82;100.00;98822.34;5072504;28;20425;-92
2022/08/20 01:55:33;;;;;;;;;;;;;;;28.84;100.00;98828.31;5072875;28;19919;-91
2022/08/20 01:57:59;;;;;;;;;;;;;;;28.11;100.00;98836.16;5057125;28;20454;-93
2022/08/20 02:00:24;;;;;;;;;;;;;;;26.97;100.00;98838.47;5062333;28;19918;-92
2022/08/20 02:02:50;;;;;;;;;;;;;;;26.97;100.00;98839.28;5058754;28;19966;-92
2022/08/20 02:05:16;;;;;;;;;;;;;;;26.67;100.00;98836.16;5081070;28;20272;-92
2022/08/20 02:07:41;;;;;;;;;;;;;;;27.13;100.00;98826.16;5057925;28;19916;-92
2022/08/20 02:10:07;;;;;;;;;;;;;;;26.43;100.00;98841.25;5062752;28;19919;-93
2022/08/20 02:12:34;;;;;;;;;;;;;;;26.40;100.00;98846.84;5064499;28;20469;-92
2022/08/20 02:14:59;;;;;;;;;;;;;;;25.27;100.00;98850.84;5076942;28;19969;-92
2022/08/20 02:17:25;;;;;;;;;;;;;;;25.69;100.00;98845.06;5061710;28;19916;-93
2022/08/20 02:19:57;;;;;;;;;;;;;;;25.40;100.00;98844.25;5062429;28;19970;-93
2022/08/20 02:22:34;;;;;;;;;;;;;;;25.92;100.00;98853.38;5066747;28;19920;-93
2022/08/20 02:24:59;;;;;;;;;;;;;;;25.99;100.00;98851.78;5068299;28;20335;-94
2022/08/20 02:27:27;;;;;;;;;;;;;;;25.71;100.00;98846.56;5064145;28;19912;-93
2022/08/20 02:29:52;;;;;;;;;;;;;;;25.42;100.00;98846.75;5064090;28;20513;-94
2022/08/20 02:32:18;;;;;;;;;;;;;;;24.84;100.00;98847.81;5065281;28;19998;-94
2022/08/20 02:34:43;;;;;;;;;;;;;;;25.27;100.00;98858.75;5067247;28;20217;-93
2022/08/20 02:37:09;;;;;;;;;;;;;;;25.48;100.00;98861.13;5078240;27;19912;-94
2022/08/20 02:39:34;;;;;;;;;;;;;;;25.09;100.00;98856.00;5117888;27;19916;-94
2022/08/20 02:42:01;;;;;;;;;;;;;;;24.80;100.00;98859.59;5082047;28;20254;-93
2022/08/20 02:44:32;;;;;;;;;;;;;;;24.71;100.00;98852.56;5088880;27;19931;-93
2022/08/20 02:46:58;;;;;;;;;;;;;;;24.47;100.00;98856.47;5087962;28;19912;-93
2022/08/20 02:49:24;;;;;;;;;;;;;;;24.78;100.00;98861.53;5089541;27;20439;-93
2022/08/20 02:51:49;;;;;;;;;;;;;;;24.83;100.00;98857.50;5106360;27;19957;-94
2022/08/20 02:54:14;;;;;;;;;;;;;;;24.76;100.00;98856.41;5089698;27;19958;-94
2022/08/20 02:56:40;;;;;;;;;;;;;;;25.19;100.00;98848.94;5113957;28;20386;-93
2022/08/20 02:59:05;;;;;;;;;;;;;;;23.84;100.00;98853.44;5084021;28;19920;-93
2022/08/20 03:01:31;;;;;;;;;;;;;;;24.56;100.00;98846.91;5118929;27;19915;-93
2022/08/20 03:03:57;;;;;;;;;;;;;;;23.94;100.00;98839.31;5079876;28;19922;-93
2022/08/20 03:06:23;;;;;;;;;;;;;;;23.86;100.00;98843.63;5087687;28;20276;-93
2022/08/20 03:08:49;;;;;;;;;;;;;;;24.12;100.00;98836.81;5078456;28;19920;-92
2022/08/20 03:11:17;;;;;;;;;;;;;;;24.84;100.00;98832.84;5078581;27;19916;-93
2022/08/20 03:13:42;;;;;;;;;;;;;;;23.90;100.00;98824.78;5100779;27;20039;-92
2022/08/20 03:16:08;;;;;;;;;;;;;;;24.27;100.00;98825.84;5094018;27;20006;-93
2022/08/20 03:18:39;;;;;;;;;;;;;;;24.83;100.00;98819.78;5076017;28;19924;-92
2022/08/20 03:21:05;;;;;;;;;;;;;;;24.66;100.00;98823.19;5085225;28;19920;-91
2022/08/20 03:23:30;;;;;;;;;;;;;;;25.32;100.00;98814.34;5071290;27;20222;-92
2022/08/20 03:25:56;;;;;;;;;;;;;;;24.83;100.00;98811.88;5070660;28;19943;-91
2022/08/20 03:28:24;;;;;;;;;;;;;;;25.64;100.00;98817.31;5074953;28;20007;-92
2022/08/20 03:30:50;;;;;;;;;;;;;;;26.05;100.00;98811.63;5078451;27;19919;-92
2022/08/20 03:33:16;;;;;;;;;;;;;;;26.39;100.00;98824.06;5081033;27;20014;-92
2022/08/20 03:35:41;;;;;;;;;;;;;;;26.34;100.00;98821.06;5085048;28;20068;-93
2022/08/20 03:38:07;;;;;;;;;;;;;;;26.51;100.00;98828.13;5086358;27;19954;-93
2022/08/20 03:40:33;;;;;;;;;;;;;;;26.84;100.00;98823.84;5114119;27;20514;-93
2022/08/20 03:43:00;;;;;;;;;;;;;;;26.99;100.00;98831.22;5082559;27;20211;-93
2022/08/20 03:45:28;;;;;;;;;;;;;;;27.33;100.00;98823.28;5081551;27;19916;-93
2022/08/20 03:48:03;;;;;;;;;;;;;;;27.21;100.00;98829.84;5079472;27;19923;-93
2022/08/20 03:50:29;;;;;;;;;;;;;;;27.34;100.00;98838.16;5071617;27;19922;-92
2022/08/20 03:52:55;;;;;;;;;;;;;;;27.26;100.00;98838.13;5076324;27;19919;-92
2022/08/20 03:55:21;;;;;;;;;;;;;;;27.40;100.00;98839.34;5077454;28;19931;-93
2022/08/20 03:57:50;;;;;;;;;;;;;;;27.45;100.00;98844.97;5109790;27;19922;-92
2022/08/20 04:00:19;;;;;;;;;;;;;;;27.42;100.00;98853.22;5090965;28;19916;-93
2022/08/20 04:02:47;;;;;;;;;;;;;;;27.43;100.00;98854.88;5085428;27;19918;-93
2022/08/20 04:05:13;;;;;;;;;;;;;;;27.47;100.00;98857.03;5080980;28;19922;-94
2022/08/20 04:07:39;;;;;;;;;;;;;;;27.53;100.00;98859.03;5079896;28;19912;-94
2022/08/20 04:10:05;;;;;;;;;;;;;;;27.44;100.00;98852.09;5080155;28;19957;-93
2022/08/20 04:12:30;;;;;;;;;;;;;;;27.15;100.00;98856.91;5080187;28;19965;-94
2022/08/20 04:14:58;;;;;;;;;;;;;;;27.09;100.00;98853.88;5080378;28;20326;-94
2022/08/20 04:17:23;;;;;;;;;;;;;;;27.23;100.00;98854.31;5080190;28;19916;-94
2022/08/20 04:19:48;;;;;;;;;;;;;;;27.43;100.00;98850.41;5096981;28;19916;-94
2022/08/20 04:22:14;;;;;;;;;;;;;;;27.22;100.00;98857.94;5080306;28;20391;-94
2022/08/20 04:24:40;;;;;;;;;;;;;;;27.26;100.00;98854.81;5080391;28;20361;-94
2022/08/20 04:27:07;;;;;;;;;;;;;;;27.31;100.00;98857.81;5080401;28;20011;-95
2022/08/20 04:29:35;;;;;;;;;;;;;;;27.44;100.00;98861.84;5102317;28;19922;-94
2022/08/20 04:32:04;;;;;;;;;;;;;;;27.37;100.00;98866.09;5088683;28;19918;-90
2022/08/20 04:34:29;;;;;;;;;;;;;;;27.35;100.00;98865.41;5114240;27;19922;-89
2022/08/20 04:36:55;;;;;;;;;;;;;;;27.37;100.00;98872.22;5132472;27;19959;-93
2022/08/20 04:39:23;;;;;;;;;;;;;;;27.28;100.00;98878.47;5078819;28;19964;-94
2022/08/20 04:41:48;;;;;;;;;;;;;;;27.38;100.00;98883.63;5114158;27;19919;-93
2022/08/20 04:44:23;;;;;;;;;;;;;;;;;;;;;
2022/08/20 04:46:49;;;;;;;;;;;;;;;27.25;100.00;98879.59;5089094;27;19926;-93
2022/08/20 04:49:14;;;;;;;;;;;;;;;27.19;100.00;98892.63;5058783;27;20082;-91
2022/08/20 04:51:40;;;;;;;;;;;;;;;27.15;100.00;98888.63;5087116;28;19918;-92
2022/08/20 04:54:23;;;;;;;;;;;;;;;27.05;100.00;98889.56;5110089;27;19916;-93
2022/08/20 04:57:39;;;;;;;;;;;;;;;;;;;;;
2022/08/20 04:59:56;;;;;;;;;;;;;;;27.19;100.00;98887.31;5101466;27;19920;-93
2022/08/20 05:02:22;;;;;;;;;;;;;;;27.20;100.00;98891.63;5075806;27;19961;-93
2022/08/20 05:04:47;;;;;;;;;;;;;;;27.12;100.00;98895.88;5066862;27;20052;-92
2022/08/20 05:07:14;;;;;;;;;;;;;;;26.57;100.00;98898.00;5072211;28;19919;-92
2022/08/20 05:09:39;;;;;;;;;;;;;;;27.11;100.00;98904.78;5070312;28;19916;-91
2022/08/20 05:12:15;;;;;;;;;;;;;;;;;;;;;
2022/08/20 05:14:43;;;;;;;;;;;;;;;27.06;100.00;98909.72;5077400;27;19916;-92
2022/08/20 05:17:14;;;;;;;;;;;;;;;27.30;100.00;98901.13;5064004;28;20112;-92
2022/08/20 05:19:41;;;;;;;;;;;;;;;27.09;100.00;98916.50;5083161;28;19969;-92
2022/08/20 05:22:08;;;;;;;;;;;;;;;27.29;100.00;98906.56;5068885;28;20391;-92
2022/08/20 05:24:38;;;;;;;;;;;;;;;27.24;100.00;98909.69;5106521;27;19912;-91
2022/08/20 05:27:03;;;;;;;;;;;;;;;27.48;100.00;98901.03;5086891;28;20412;-91
2022/08/20 05:29:29;;;;;;;;;;;;;;;27.47;100.00;98902.00;5088544;28;20310;-90
2022/08/20 05:31:55;;;;;;;;;;;;;;;27.51;100.00;98907.81;5084733;28;19923;-91
2022/08/20 05:34:33;;;;;;;;;;;;;;;;;;;;;
2022/08/20 05:37:01;;;;;;;;;;;;;;;27.36;100.00;98912.88;5089049;28;19925;-90
2022/08/20 05:39:27;;;;;;;;;;;;;;;27.47;100.00;98915.22;5053916;28;19952;-89
2022/08/20 05:41:57;;;;;;;;;;;;;;;27.43;100.00;98919.16;5101146;28;20417;-90
2022/08/20 05:44:25;;;;;;;;;;;;;;;27.60;100.00;98916.59;5106537;28;19931;-90
2022/08/20 05:47:00;;;;;;;;;;;;;;;27.30;100.00;98924.91;5064882;28;19916;-90
2022/08/20 05:49:26;;;;;;;;;;;;;;;27.50;100.00;98917.53;5069570;28;19920;-90
2022/08/20 05:52:11;;;;;;;;;;;;;;;27.48;100.00;98921.34;5071651;28;20422;-90
2022/08/20 05:54:39;;;;;;;;;;;;;;;27.50;100.00;98919.38;5071024;28;20068;-90
2022/08/20 05:57:07;;;;;;;;;;;;;;;27.56;100.00;98913.44;5088720;28;20184;-89
2022/08/20 05:59:35;;;;;;;;;;;;;;;27.46;100.00;98926.81;5084172;28;20451;-89
2022/08/20 06:02:00;;;;;;;;;;;;;;;26.96;100.00;98935.44;5102194;27;20035;-89
2022/08/20 06:04:28;;;;;;;;;;;;;;;25.43;100.00;98930.97;5085248;28;19919;-89
2022/08/20 06:07:07;;;;;;;;;;;;;;;26.14;100.00;98921.56;5066615;28;19923;-89
2022/08/20 06:09:34;;;;;;;;;;;;;;;25.62;100.00;98927.41;5071725;27;19966;-90
2022/08/20 06:12:04;;;;;;;;;;;;;;;26.49;100.00;98915.41;5069344;27;19919;-89
2022/08/20 06:14:30;;;;;;;;;;;;;;;26.83;100.00;98921.81;5070548;27;19915;-90
2022/08/20 06:17:01;;;;;;;;;;;;;;;27.40;100.00;98919.50;5068823;27;20338;-90
2022/08/20 06:19:31;;;;;;;;;;;;;;;27.59;100.00;98915.75;5087159;27;20007;-89
2022/08/20 06:21:58;;;;;;;;;;;;;;;27.49;100.00;98913.25;5078932;27;19938;-90
2022/08/20 06:24:29;;;;;;;;;;;;;;;27.66;100.00;98908.00;5070964;27;19919;-89
2022/08/20 06:26:55;;;;;;;;;;;;;;;27.78;100.00;98906.75;5072715;27;20055;-89
2022/08/20 06:29:21;;;;;;;;;;;;;;;27.77;100.00;98915.66;5069295;27;19915;-88
2022/08/20 06:31:46;;;;;;;;;;;;;;;27.77;100.00;98910.38;5070098;27;20380;-91
2022/08/20 06:34:11;;;;;;;;;;;;;;;27.83;100.00;98912.38;5072534;27;19927;-88
2022/08/20 06:36:37;;;;;;;;;;;;;;;28.02;100.00;98907.81;5071079;27;20733;-90
2022/08/20 06:39:04;;;;;;;;;;;;;;;27.68;100.00;98911.34;5071243;27;19935;-92
2022/08/20 06:41:40;;;;;;;;;;;;;;;;;;;;;
2022/08/20 06:44:06;;;;;;;;;;;;;;;27.95;100.00;98915.56;5108347;27;19920;-91
2022/08/20 06:46:37;;;;;;;;;;;;;;;27.23;100.00;98923.03;5075058;27;19916;-91
2022/08/20 06:49:06;;;;;;;;;;;;;;;27.29;100.00;98917.97;5085853;28;19930;-91
2022/08/20 06:51:32;;;;;;;;;;;;;;;28.20;100.00;98921.72;5081391;28;19926;-91
2022/08/20 06:53:58;;;;;;;;;;;;;;;27.86;100.00;98916.53;5086657;27;19920;-91
2022/08/20 06:56:23;;;;;;;;;;;;;;;26.68;100.00;98917.06;5094083;27;19920;-92
2022/08/20 06:58:51;;;;;;;;;;;;;;;26.54;100.00;98912.31;5073587;27;20027;-93
2022/08/20 07:01:20;;;;;;;;;;;;;;;27.44;100.00;98920.84;5080496;27;19943;-92
2022/08/20 07:03:45;;;;;;;;;;;;;;;28.30;100.00;98905.66;5093024;27;19920;-92
2022/08/20 07:06:11;;;;;;;;;;;;;;;28.19;100.00;98906.84;5073831;27;19942;-91
2022/08/20 07:08:39;;;;;;;;;;;;;;;27.59;100.00;98912.28;5072613;27;20434;-91
2022/08/20 07:11:05;;;;;;;;;;;;;;;28.13;100.00;98910.97;5095161;27;20027;-90
2022/08/20 07:13:30;;;;;;;;;;;;;;;27.48;100.00;98910.75;5070519;27;20653;-89
2022/08/20 07:15:58;;;;;;;;;;;;;;;27.41;100.00;98915.03;5065217;27;19915;-88
2022/08/20 07:18:23;;;;;;;;;;;;;;;27.60;100.00;98912.16;5068524;28;19935;-88
2022/08/20 07:20:49;;;;;;;;;;;;;;;27.94;100.00;98912.09;5084022;27;19927;-88
2022/08/20 07:23:14;;;;;;;;;;;;;;;29.21;100.00;98912.56;5093568;27;20167;-88
2022/08/20 07:25:40;;;;;;;;;;;;;;;26.99;100.00;98931.66;5075890;27;19938;-88
2022/08/20 07:28:07;;;;;;;;;;;;;;;26.99;100.00;98924.53;5085479;27;19951;-87
2022/08/20 07:33:17;;;;;;;;;;;;;;;26.68;100.00;98930.28;5088782;27;20011;-88
2022/08/20 07:35:42;;;;;;;;;;;;;;;27.09;100.00;98933.19;5073599;27;20229;-88
2022/08/20 07:38:14;;;;;;;;;;;;;;;25.80;100.00;98934.53;5084725;28;19924;-90
2022/08/20 07:40:41;;;;;;;;;;;;;;;26.72;100.00;98925.53;5084254;27;19985;-90
2022/08/20 07:43:10;;;;;;;;;;;;;;;27.06;100.00;98933.50;5084416;27;20322;-89
2022/08/20 07:45:36;;;;;;;;;;;;;;;27.05;100.00;98933.66;5063884;27;19920;-90
2022/08/20 07:48:05;;;;;;;;;;;;;;;27.24;100.00;98925.53;5085926;27;20450;-90
2022/08/20 07:50:31;;;;;;;;;;;;;;;27.91;100.00;98936.22;5086701;27;20004;-89
2022/08/20 07:52:59;;;;;;;;;;;;;;;27.97;100.00;98931.28;5103263;27;19984;-89
2022/08/20 07:55:24;;;;;;;;;;;;;;;27.97;100.00;98929.47;5079012;27;19926;-89
2022/08/20 07:57:49;;;;;;;;;;;;;;;28.32;100.00;98931.00;5087241;27;20292;-90
2022/08/20 08:00:16;;;;;;;;;;;;;;;28.80;100.00;98927.72;5069987;27;19920;-89
2022/08/20 08:02:41;;;;;;;;;;;;;;;28.94;100.00;98932.31;5089295;27;20383;-91
2022/08/20 08:05:09;;;;;;;;;;;;;;;28.54;100.00;98934.03;5072481;27;19941;-91
2022/08/20 08:07:35;;;;;;;;;;;;;;;28.39;100.00;98940.94;5088948;27;19974;-89
2022/08/20 08:10:01;;;;;;;;;;;;;;;28.39;100.00;98933.00;5075662;28;19951;-89
2022/08/20 08:12:29;;;;;;;;;;;;;;;28.84;100.00;98937.81;5087484;27;19919;-89
2022/08/20 08:14:55;;;;;;;;;;;;;;;28.71;100.00;98935.66;5070839;27;20010;-89
2022/08/20 08:17:20;;;;;;;;;;;;;;;28.49;100.00;98936.34;5068532;27;19923;-89
2022/08/20 08:19:48;;;;;;;;;;;;;;;28.01;100.00;98949.34;5066929;27;20146;-89
2022/08/20 08:22:15;;;;;;;;;;;;;;;28.02;100.00;98948.34;5069464;27;19916;-89
2022/08/20 08:24:42;;;;;;;;;;;;;;;27.82;100.00;98947.75;5083664;27;19965;-89
2022/08/20 08:27:07;;;;;;;;;;;;;;;27.54;100.00;98960.38;5082183;27;19981;-90
2022/08/20 08:29:33;;;;;;;;;;;;;;;28.43;100.00;98956.34;5094162;27;19923;-89
2022/08/20 08:32:00;;;;;;;;;;;;;;;28.97;100.00;98950.56;5074797;28;19922;-90
2022/08/20 08:34:28;;;;;;;;;;;;;;;28.56;100.00;98962.00;5076526;27;19923;-90
2022/08/20 08:36:56;;;;;;;;;;;;;;;28.15;100.00;98958.47;5083097;27;19943;-90
2022/08/20 08:39:21;;;;;;;;;;;;;;;28.63;100.00;98948.09;5088746;27;19999;-90
2022/08/20 08:41:48;;;;;;;;;;;;;;;28.28;100.00;98956.19;5077427;27;20010;-89
2022/08/20 08:44:27;;;;;;;;;;;;;;;28.68;100.00;98957.19;5075917;27;19919;-90
2022/08/20 08:46:55;;;;;;;;;;;;;;;29.12;100.00;98954.19;5090151;28;19927;-89
2022/08/20 08:49:23;;;;;;;;;;;;;;;29.06;100.00;98952.19;5082855;27;19919;-89
2022/08/20 08:52:16;;;;;;;;;;;;;;;28.43;100.00;98966.13;5074922;27;19923;-89
2022/08/20 08:54:42;;;;;;;;;;;;;;;28.50;100.00;98965.31;5082822;27;19964;-90
2022/08/20 08:57:08;;;;;;;;;;;;;;;28.59;100.00;98963.50;5079644;27;19923;-89
2022/08/20 08:59:33;;;;;;;;;;;;;;;28.65;100.00;98968.16;5070888;27;19924;-89
2022/08/20 09:01:58;;;;;;;;;;;;;;;28.48;100.00;98969.94;5094405;27;19912;-89
2022/08/20 09:04:42;;;;;;;;;;;;;;;28.98;100.00;98968.09;5077182;27;19915;-89
2022/08/20 09:07:12;;;;;;;;;;;;;;;29.19;100.00;98972.91;5077715;27;19915;-88
2022/08/20 09:09:37;;;;;;;;;;;;;;;28.53;100.00;98980.91;5091215;27;19951;-89
2022/08/20 09:12:04;;;;;;;;;;;;;;;28.11;100.00;98980.97;5072262;28;21087;-89
2022/08/20 09:14:37;;;;;;;;;;;;;;;28.71;100.00;98987.84;5078919;28;20023;-90
2022/08/20 09:17:02;;;;;;;;;;;;;;;28.88;100.00;98989.50;5081628;28;20016;-90
2022/08/20 09:19:28;;;;;;;;;;;;;;;29.23;100.00;98990.13;5095741;28;20384;-89
2022/08/20 09:21:56;;;;;;;;;;;;;;;28.91;100.00;98989.16;5095391;28;19915;-89
2022/08/20 09:24:21;;;;;;;;;;;;;;;28.40;100.00;98988.47;5082985;28;20343;-89
2022/08/20 09:26:46;;;;;;;;;;;;;;;28.75;100.00;98982.03;5093624;28;19915;-89
2022/08/20 09:29:12;;;;;;;;;;;;;;;28.33;100.00;98996.22;5075112;28;19916;-89
2022/08/20 09:31:37;;;;;;;;;;;;;;;28.85;100.00;98983.69;5092237;28;19998;-89
2022/08/20 09:34:02;;;;;;;;;;;;;;;29.06;100.00;98981.38;5074410;28;20289;-89
2022/08/20 09:36:27;;;;;;;;;;;;;;;29.47;100.00;98983.94;5093104;28;19920;-89
2022/08/20 09:38:53;;;;;;;;;;;;;;;29.78;100.00;98988.50;5105157;28;20010;-88
2022/08/20 09:41:18;;;;;;;;;;;;;;;30.04;100.00;98985.56;5111064;28;19994;-89
2022/08/20 09:43:49;;;;;;;;;;;;;;;30.65;100.00;98982.97;5077153;27;19961;-89
2022/08/20 09:46:14;;;;;;;;;;;;;;;30.97;100.00;98991.72;5077116;28;19923;-89
2022/08/20 09:48:39;;;;;;;;;;;;;;;30.60;100.00;98990.69;5097909;27;19915;-88
2022/08/20 09:51:07;;;;;;;;;;;;;;;30.75;100.00;98988.91;5083239;27;19988;-89
2022/08/20 09:53:32;;;;;;;;;;;;;;;30.14;100.00;98988.81;5091184;28;19916;-90
2022/08/20 09:55:59;;;;;;;;;;;;;;;28.99;100.00;98988.34;5071507;28;19916;-89
2022/08/20 09:58:24;;;;;;;;;;;;;;;28.27;100.00;98999.53;5101156;28;20353;-90
2022/08/20 10:00:49;;;;;;;;;;;;;;;29.21;100.00;98978.03;5092021;27;19973;-89
2022/08/20 10:03:15;;;;;;;;;;;;;;;27.89;100.00;98996.44;5082126;27;19916;-90
2022/08/20 10:05:40;;;;;;;;;;;;;;;27.38;100.00;98995.53;5102210;27;19920;-90
2022/08/20 10:08:09;;;;;;;;;;;;;;;28.12;100.00;98994.03;5102641;27;20368;-90
2022/08/20 10:10:35;;;;;;;;;;;;;;;26.95;100.00;99007.75;5072208;28;20360;-90
2022/08/20 10:13:01;;;;;;;;;;;;;;;27.21;100.00;99001.69;5072201;27;19916;-89
2022/08/20 10:15:26;;;;;;;;;;;;;;;28.29;100.00;99000.19;5098720;27;19915;-89
2022/08/20 10:17:52;;;;;;;;;;;;;;;29.11;100.00;98994.97;5078565;27;19918;-90
2022/08/20 10:20:19;;;;;;;;;;;;;;;29.25;100.00;98997.94;5082849;27;19934;-90
2022/08/20 10:22:45;;;;;;;;;;;;;;;27.23;100.00;99002.38;5077286;27;19916;-90
2022/08/20 10:25:11;;;;;;;;;;;;;;;27.39;100.00;99007.75;5078738;27;19915;-91
2022/08/20 10:27:38;;;;;;;;;;;;;;;27.61;100.00;99006.38;5077679;27;19922;-92
2022/08/20 10:30:04;;;;;;;;;;;;;;;28.89;100.00;98996.44;5079744;27;19919;-90
2022/08/20 10:32:29;;;;;;;;;;;;;;;29.18;100.00;98987.16;5075700;27;19969;-90
2022/08/20 10:34:55;;;;;;;;;;;;;;;29.89;100.00;98993.41;5079612;27;19920;-89
2022/08/20 10:37:21;;;;;;;;;;;;;;;29.64;100.00;98994.50;5110403;27;19922;-91
2022/08/20 10:39:46;;;;;;;;;;;;;;;29.54;100.00;99000.00;5087794;27;19927;-89
2022/08/20 10:42:12;;;;;;;;;;;;;;;30.06;100.00;98990.66;5081742;27;19915;-91
2022/08/20 10:44:37;;;;;;;;;;;;;;;29.05;100.00;98992.94;5108157;27;19919;-91
2022/08/20 10:47:32;;;;;;;;;;;;;;;29.69;100.00;98990.34;5079430;27;19947;-91
2022/08/20 10:49:59;;;;;;;;;;;;;;;29.26;100.00;98992.44;5074422;27;19964;-90
2022/08/20 10:52:24;;;;;;;;;;;;;;;28.93;100.00;98989.81;5090118;27;19916;-89
2022/08/20 10:54:50;;;;;;;;;;;;;;;29.57;100.00;98989.88;5079242;28;20429;-90
2022/08/20 10:57:19;;;;;;;;;;;;;;;29.89;100.00;98989.94;5073520;27;20368;-90
2022/08/20 10:59:45;;;;;;;;;;;;;;;30.05;100.00;98991.69;5095519;27;20042;-90
2022/08/20 11:02:10;;;;;;;;;;;;;;;31.07;100.00;98979.00;5081681;27;20006;-91
2022/08/20 11:04:36;;;;;;;;;;;;;;;30.65;100.00;98985.66;5082322;27;19916;-89
2022/08/20 11:07:21;;;;;;;;;;;;;;;29.96;100.00;98993.56;5077723;27;20269;-88
2022/08/20 11:09:47;;;;;;;;;;;;;;;31.97;100.00;98977.16;5057027;27;19916;-89
2022/08/20 11:12:12;;;;;;;;;;;;;;;32.38;98.84;98968.56;5101583;27;19911;-90
2022/08/20 11:14:38;;;;;;;;;;;;;;;30.72;100.00;98983.91;5118400;27;20055;-91
2022/08/20 11:17:06;;;;;;;;;;;;;;;32.70;93.31;98972.56;5082828;27;20598;-90
2022/08/20 11:19:32;;;;;;;;;;;;;;;30.22;100.00;98993.22;5079600;27;19961;-91
2022/08/20 11:21:57;;;;;;;;;;;;;;;30.46;100.00;98983.47;5079691;27;19978;-87
2022/08/20 11:24:23;;;;;;;;;;;;;;;29.53;100.00;98996.50;5093763;27;19931;-89
2022/08/20 11:26:49;;;;;;;;;;;;;;;29.14;100.00;98986.66;5079473;27;19915;-89
2022/08/20 11:29:14;;;;;;;;;;;;;;;29.46;100.00;98984.94;5095971;27;19951;-88
2022/08/20 11:31:39;;;;;;;;;;;;;;;31.14;100.00;98977.25;5074638;27;19958;-89
2022/08/20 11:34:05;;;;;;;;;;;;;;;31.84;100.00;98983.13;5075126;28;20344;-88
2022/08/20 11:36:30;;;;;;;;;;;;;;;33.60;92.75;98978.13;5094836;27;20026;-88
2022/08/20 11:38:55;;;;;;;;;;;;;;;31.04;93.64;98988.16;5078376;27;19966;-88
2022/08/20 11:41:24;;;;;;;;;;;;;;;31.92;95.47;98980.34;5096033;27;20410;-88
2022/08/20 11:43:49;;;;;;;;;;;;;;;32.96;88.72;98971.97;5095074;28;19915;-87
2022/08/20 11:46:14;;;;;;;;;;;;;;;33.05;83.22;98975.31;5081527;27;20580;-90
2022/08/20 11:48:40;;;;;;;;;;;;;;;32.45;85.93;98980.94;5097265;27;19912;-90
2022/08/20 11:51:05;;;;;;;;;;;;;;;34.40;81.78;98973.06;5081690;27;19950;-90
2022/08/20 11:53:30;;;;;;;;;;;;;;;34.25;71.68;98975.91;5088065;27;19920;-93
2022/08/20 11:55:56;;;;;;;;;;;;;;;33.91;79.79;98970.44;5090275;27;20543;-91
2022/08/20 11:58:21;;;;;;;;;;;;;;;33.83;76.85;98969.81;5083549;27;19915;-89
2022/08/20 12:00:53;;;;;;;;;;;;;;;34.44;69.21;98961.75;5084777;27;19912;-89
2022/08/20 12:03:18;;;;;;;;;;;;;;;34.47;72.31;98968.53;5084860;27;20352;-89
2022/08/20 12:05:44;;;;;;;;;;;;;;;35.17;68.65;98958.22;5104123;27;19922;-89
2022/08/20 12:08:09;;;;;;;;;;;;;;;35.87;66.74;98968.31;5083111;28;19949;-89
2022/08/20 12:10:36;;;;;;;;;;;;;;;33.87;70.96;98969.22;5082576;28;19931;-89
2022/08/20 12:13:01;;;;;;;;;;;;;;;33.70;69.80;98971.41;5080454;28;19923;-89
2022/08/20 12:15:26;;;;;;;;;;;;;;;32.53;71.23;98971.22;5085203;27;19915;-89
2022/08/20 12:17:52;;;;;;;;;;;;;;;32.94;76.58;98973.19;5107557;27;19934;-89
2022/08/20 12:20:17;;;;;;;;;;;;;;;30.30;89.99;98966.66;5111388;27;19924;-89
2022/08/20 12:22:43;;;;;;;;;;;;;;;29.64;94.69;98976.75;5089476;27;20391;-89
2022/08/20 12:25:09;;;;;;;;;;;;;;;28.68;98.96;98986.34;5113051;27;19916;-89
2022/08/20 12:27:34;;;;;;;;;;;;;;;27.09;100.00;98996.63;5080722;28;20230;-89
2022/08/20 12:30:01;;;;;;;;;;;;;;;27.59;100.00;98996.94;5082469;27;19972;-89
2022/08/20 12:32:27;;;;;;;;;;;;;;;26.65;100.00;98996.63;5095385;28;19998;-89
2022/08/20 12:34:53;;;;;;;;;;;;;;;27.04;100.00;98998.91;5110307;28;19942;-89
2022/08/20 12:37:22;;;;;;;;;;;;;;;28.81;100.00;98992.97;5085599;27;20360;-90
2022/08/20 12:39:49;;;;;;;;;;;;;;;29.26;100.00;98988.97;5104861;27;20118;-87
2022/08/20 12:42:15;;;;;;;;;;;;;;;29.27;100.00;98987.97;5082570;27;19916;-89
2022/08/20 12:44:40;;;;;;;;;;;;;;;29.74;100.00;98995.13;5081633;28;19923;-89